createdAt,value
2023-04-15T00:00:10.389Z,94542.78
2023-04-15T00:02:38.830Z,94541.78
2023-04-15T00:05:07.645Z,94557.88
2023-04-15T00:07:35.590Z,94529.81
2023-04-15T00:10:04.501Z,94518.72
2023-04-15T00:12:32.502Z,94483.06
2023-04-15T00:15:00.497Z,94581.06
2023-04-15T00:17:29.776Z,94570.94
2023-04-15T00:19:59.934Z,94574.50
2023-04-15T00:22:28.336Z,94583.69
2023-04-15T00:24:56.526Z,94575.94
2023-04-15T00:27:24.461Z,94573.16
2023-04-15T00:29:52.755Z,94570.03
2023-04-15T00:32:20.865Z,94564.88
2023-04-15T00:34:50.916Z,94559.66
2023-04-15T00:37:18.825Z,94559.41
2023-04-15T00:39:46.753Z,94558.63
2023-04-15T00:42:14.817Z,94570.28
2023-04-15T00:44:42.845Z,94577.78
2023-04-15T00:47:11.928Z,94575.94
2023-04-15T00:49:39.854Z,94582.56
2023-04-15T00:52:09.290Z,94558.34
2023-04-15T00:54:37.641Z,94584.00
2023-04-15T00:57:06.972Z,94573.84
2023-04-15T00:59:35.393Z,94579.53
2023-04-15T01:02:03.482Z,94578.56
2023-04-15T01:04:32.088Z,94573.34
2023-04-15T01:07:00.131Z,94585.19
2023-04-15T01:09:29.528Z,94578.13
2023-04-15T01:11:57.882Z,94582.59
2023-04-15T01:14:27.222Z,94594.66
2023-04-15T01:16:55.221Z,94588.66
2023-04-15T01:19:23.430Z,94586.88
2023-04-15T01:21:51.993Z,94574.13
2023-04-15T01:24:21.348Z,94567.50
2023-04-15T01:26:51.228Z,94571.69
2023-04-15T01:29:19.485Z,94567.84
2023-04-15T01:31:52.341Z,94560.63
2023-04-15T01:34:21.052Z,94566.91
2023-04-15T01:36:49.577Z,94565.81
2023-04-15T01:39:17.889Z,94567.94
2023-04-15T01:41:45.904Z,94577.00
2023-04-15T01:44:15.301Z,94577.19
2023-04-15T01:46:43.184Z,94568.19
2023-04-15T01:49:11.290Z,94585.06
2023-04-15T01:51:39.204Z,94596.09
2023-04-15T01:54:07.105Z,94590.09
2023-04-15T01:56:35.064Z,94588.91
2023-04-15T01:59:03.851Z,94597.53
2023-04-15T02:01:33.283Z,94595.22
2023-04-15T02:04:01.471Z,94606.66
2023-04-15T02:06:29.632Z,94599.81
2023-04-15T02:08:57.552Z,94607.28
2023-04-15T02:11:25.533Z,94592.69
2023-04-15T02:13:53.480Z,94599.75
2023-04-15T02:16:21.885Z,94594.97
2023-04-15T02:18:52.141Z,94597.66
2023-04-15T02:21:20.180Z,94594.06
2023-04-15T02:23:48.593Z,94588.59
2023-04-15T02:26:17.017Z,94582.66
2023-04-15T02:28:44.937Z,94584.03
2023-04-15T02:31:13.008Z,94581.97
2023-04-15T02:33:41.117Z,94576.34
2023-04-15T02:36:12.462Z,94602.81
2023-04-15T02:38:42.497Z,94595.72
2023-04-15T02:41:11.347Z,94586.94
2023-04-15T02:43:40.083Z,94600.00
2023-04-15T02:46:08.196Z,94591.69
2023-04-15T02:48:36.171Z,94597.00
2023-04-15T02:51:15.604Z,94602.06
2023-04-15T02:53:43.917Z,94617.00
2023-04-15T02:56:12.634Z,94616.38
2023-04-15T02:58:41.952Z,94616.22
2023-04-15T03:01:09.944Z,94617.94
2023-04-15T03:03:38.118Z,94614.16
2023-04-15T03:06:06.712Z,94610.38
2023-04-15T03:08:36.502Z,94615.72
2023-04-15T03:11:04.975Z,94571.97
2023-04-15T03:13:32.918Z,94614.16
2023-04-15T03:16:01.095Z,94625.25
2023-04-15T03:18:29.408Z,94625.59
2023-04-15T03:20:57.374Z,94624.16
2023-04-15T03:23:25.429Z,94626.13
2023-04-15T03:25:56.021Z,94618.56
2023-04-15T03:28:24.032Z,94630.66
2023-04-15T03:30:51.967Z,94634.72
2023-04-15T03:33:19.947Z,94639.94
2023-04-15T03:35:48.042Z,94642.00
2023-04-15T03:38:15.973Z,94642.53
2023-04-15T03:40:44.202Z,94654.34
2023-04-15T03:43:13.602Z,94659.72
2023-04-15T03:45:41.630Z,94659.25
2023-04-15T03:48:17.335Z,94656.47
2023-04-15T03:50:46.519Z,94654.13
2023-04-15T03:53:14.452Z,94663.25
2023-04-15T03:55:42.453Z,94642.81
2023-04-15T03:58:12.953Z,94674.25
2023-04-15T04:00:42.605Z,94666.69
2023-04-15T04:03:10.737Z,94665.16
2023-04-15T04:05:41.551Z,94661.97
2023-04-15T04:08:09.553Z,94648.88
2023-04-15T04:10:37.567Z,94662.31
2023-04-15T04:13:05.548Z,94662.00
2023-04-15T04:15:33.540Z,94658.63
2023-04-15T04:18:03.206Z,94663.72
2023-04-15T04:20:32.130Z,94652.50
2023-04-15T04:23:00.349Z,94659.00
2023-04-15T04:25:28.325Z,94655.56
2023-04-15T04:27:56.441Z,94666.16
2023-04-15T04:30:24.498Z,94666.78
2023-04-15T04:32:52.615Z,94655.78
2023-04-15T04:35:23.344Z,94658.56
2023-04-15T04:37:52.495Z,94666.38
2023-04-15T04:40:20.796Z,94674.25
2023-04-15T04:42:48.908Z,94676.97
2023-04-15T04:45:16.814Z,94613.34
2023-04-15T04:47:44.770Z,94689.03
2023-04-15T04:50:13.150Z,94687.75
2023-04-15T13:18:18.462Z,94657.38
2023-04-15T13:20:47.905Z,94674.38
2023-04-15T13:23:16.473Z,94666.75
2023-04-15T13:25:44.558Z,94657.50
2023-04-15T13:28:13.013Z,94664.25
2023-04-15T13:30:41.530Z,94666.72
2023-04-15T13:33:09.531Z,94669.16
2023-04-15T13:35:37.530Z,94655.63
2023-04-15T13:38:06.876Z,94650.13
2023-04-15T13:40:34.906Z,94665.75
2023-04-15T13:43:03.458Z,94659.38
2023-04-15T13:45:31.561Z,94645.63
2023-04-15T13:47:59.823Z,94648.34
2023-04-15T13:50:28.632Z,94647.44
2023-04-15T13:52:56.910Z,94643.19
2023-04-15T13:55:27.925Z,94648.41
2023-04-15T13:57:57.594Z,94544.41
2023-04-15T14:00:25.550Z,94639.97
2023-04-15T14:02:53.616Z,94626.75
2023-04-15T14:05:21.695Z,94627.03
2023-04-15T14:07:50.355Z,94627.44
2023-04-15T14:10:18.652Z,94629.66
2023-04-15T14:12:47.919Z,94605.03
2023-04-15T14:15:15.876Z,94634.31
2023-04-15T14:17:43.933Z,94634.38
2023-04-15T14:20:13.237Z,94636.72
2023-04-15T14:22:42.933Z,94643.91
2023-04-15T14:25:23.091Z,94640.50
2023-04-15T14:27:56.430Z,94644.69
2023-04-15T14:30:24.614Z,94643.78
2023-04-15T14:32:52.811Z,94640.22
2023-04-15T14:35:20.951Z,94646.84
2023-04-15T14:37:49.322Z,94621.19
2023-04-15T14:40:17.439Z,94637.91
2023-04-15T14:42:45.398Z,94638.69
2023-04-15T14:45:15.296Z,94643.19
2023-04-15T14:47:43.368Z,94654.06
2023-04-15T14:50:12.047Z,94649.25
2023-04-15T14:52:40.117Z,94648.97
2023-04-15T14:55:10.362Z,94641.75
2023-04-15T14:57:38.877Z,94608.25
2023-04-15T15:00:08.606Z,94651.91
2023-04-15T15:02:40.437Z,94655.09
2023-04-15T15:05:09.612Z,94620.22
2023-04-15T15:07:37.860Z,94640.03
2023-04-15T15:10:06.738Z,94632.16
2023-04-15T15:12:35.255Z,94634.16
2023-04-15T15:15:12.173Z,94642.03
2023-04-15T15:17:45.969Z,94635.84
2023-04-15T15:20:13.931Z,94625.72
2023-04-15T15:22:41.904Z,94638.19
2023-04-15T15:25:10.128Z,94625.00
2023-04-15T15:27:38.549Z,94632.81
2023-04-15T15:30:07.628Z,94611.47
2023-04-15T15:32:35.960Z,94602.53
2023-04-15T15:35:06.617Z,94637.09
2023-04-15T15:37:34.626Z,94612.53
2023-04-15T15:40:03.614Z,94634.44
2023-04-15T15:42:33.608Z,94628.97
2023-04-15T15:45:02.149Z,94629.75
2023-04-15T15:47:30.517Z,94634.44
2023-04-15T15:50:00.287Z,94624.69
2023-04-15T15:52:29.811Z,94627.44
2023-04-15T15:54:57.729Z,94629.03
2023-04-15T15:57:25.789Z,94627.47
2023-04-15T16:00:04.855Z,94632.56
2023-04-15T16:03:04.425Z,94633.34
2023-04-15T16:05:26.461Z,94614.63
2023-04-15T16:07:56.017Z,94632.59
2023-04-15T16:10:23.908Z,94631.00
2023-04-15T16:12:52.258Z,94629.81
2023-04-15T16:15:20.545Z,94633.34
2023-04-15T16:17:48.489Z,94616.63
2023-04-15T16:20:16.832Z,94628.34
2023-04-15T16:22:45.002Z,94632.19
2023-04-15T16:25:14.755Z,94627.13
2023-04-15T16:27:57.284Z,94622.88
2023-04-15T16:30:27.303Z,94630.25
2023-04-15T16:32:55.566Z,94631.44
2023-04-15T16:35:23.502Z,94626.72
2023-04-15T16:37:51.586Z,94619.75
2023-04-15T16:40:20.976Z,94608.47
2023-04-15T16:42:49.020Z,94636.09
2023-04-15T16:45:17.596Z,94630.66
2023-04-15T16:47:45.858Z,94632.56
2023-04-15T16:50:14.035Z,94629.06
2023-04-15T16:52:42.032Z,94640.75
2023-04-15T16:55:10.432Z,94640.75
2023-04-15T16:58:01.140Z,94629.84
2023-04-15T17:00:28.153Z,94623.19
2023-04-15T17:02:56.796Z,94634.88
2023-04-15T17:05:24.962Z,94636.81
2023-04-15T17:07:53.087Z,94637.97
2023-04-15T17:10:23.697Z,94642.97
2023-04-15T17:12:53.090Z,94652.28
2023-04-15T17:15:21.719Z,94658.44
2023-04-15T17:17:49.816Z,94651.44
2023-04-15T17:20:18.565Z,94651.41
2023-04-15T17:22:47.087Z,94630.34
2023-04-15T17:25:15.423Z,94660.72
2023-04-15T17:27:43.538Z,94647.88
2023-04-15T17:30:13.497Z,94663.84
2023-04-15T17:32:42.909Z,94660.69
2023-04-15T17:35:11.714Z,94675.47
2023-04-15T17:37:39.927Z,94669.63
2023-04-15T17:40:09.139Z,94668.06
2023-04-15T17:42:38.058Z,94673.50
2023-04-15T17:45:06.954Z,94677.75
2023-04-15T17:47:38.648Z,94685.53
2023-04-15T17:50:07.922Z,94687.84
2023-04-15T17:52:36.228Z,94693.28
2023-04-15T17:55:04.607Z,94701.03
2023-04-15T17:57:32.748Z,94697.91
2023-04-15T18:00:00.783Z,94707.22
2023-04-15T18:02:29.178Z,94697.09
2023-04-15T18:04:58.954Z,94692.41
2023-04-15T18:07:27.223Z,94553.13
2023-04-15T18:09:56.554Z,94650.16
2023-04-15T18:12:24.668Z,94706.34
2023-04-15T18:14:52.817Z,94646.94
2023-04-15T18:17:21.489Z,94714.81
2023-04-15T18:19:50.761Z,94718.69
2023-04-15T18:22:20.422Z,94713.13
2023-04-15T18:24:49.889Z,94699.00
2023-04-15T18:27:18.381Z,94720.44
2023-04-15T18:29:46.633Z,94725.81
2023-04-15T18:32:14.945Z,94711.69
2023-04-15T18:34:44.017Z,94732.28
2023-04-15T18:37:12.547Z,94597.94
2023-04-15T18:39:42.380Z,94729.84
2023-04-15T18:42:10.425Z,94735.22
2023-04-15T18:44:38.498Z,94737.72
2023-04-15T18:47:06.542Z,94738.06
2023-04-15T18:49:35.133Z,94743.63
2023-04-15T18:52:04.171Z,94742.09
2023-04-15T18:54:32.363Z,94713.75
2023-04-15T18:57:01.875Z,94740.59
2023-04-15T18:59:30.862Z,94752.03
2023-04-15T19:01:59.766Z,94741.41
2023-04-15T19:04:29.457Z,94734.44
2023-04-15T19:06:59.278Z,94748.41
2023-04-15T19:09:27.604Z,94705.31
2023-04-15T19:11:57.033Z,94745.16
2023-04-15T19:14:26.680Z,94745.06
2023-04-15T19:16:55.115Z,94719.59
2023-04-15T19:19:23.387Z,94751.44
2023-04-15T19:21:52.091Z,94749.34
2023-04-15T19:24:20.904Z,94753.91
2023-04-15T19:26:51.143Z,94744.47
2023-04-15T19:29:19.452Z,94748.59
2023-04-15T19:31:49.372Z,94754.66
2023-04-15T19:34:17.812Z,94724.81
2023-04-15T19:36:46.820Z,94600.72
2023-04-15T19:39:15.544Z,94750.06
2023-04-15T19:41:44.486Z,94749.16
2023-04-15T19:44:14.109Z,94747.84
2023-04-15T19:46:44.909Z,94751.44
2023-04-15T19:49:14.833Z,94737.63
2023-04-15T19:51:42.915Z,94738.63
2023-04-15T19:54:10.908Z,94750.94
2023-04-15T19:56:38.902Z,94752.31
2023-04-15T19:59:07.908Z,94753.72
2023-04-15T20:01:36.328Z,94750.19
2023-04-15T20:04:04.813Z,94742.19
2023-04-15T20:06:34.538Z,94754.56
2023-04-15T20:09:02.737Z,94721.28
2023-04-15T20:12:09.680Z,94758.59
2023-04-15T20:14:19.108Z,94760.97
2023-04-15T20:16:47.805Z,94758.31
2023-04-15T20:19:15.969Z,94764.16
2023-04-15T20:21:45.478Z,94764.50
2023-04-15T20:24:13.479Z,94775.72
2023-04-15T20:26:41.576Z,94786.53
2023-04-15T20:29:09.527Z,94781.75
2023-04-15T20:31:37.692Z,94717.72
2023-04-15T20:34:06.077Z,94779.78
2023-04-15T20:36:34.025Z,94784.78
2023-04-15T20:39:03.529Z,94774.66
2023-04-15T20:41:32.276Z,94780.00
2023-04-15T20:44:00.234Z,94763.28
2023-04-15T20:46:28.259Z,94779.91
2023-04-15T20:48:56.917Z,94688.69
2023-04-15T20:51:24.837Z,94764.03
2023-04-15T20:53:52.954Z,94773.63
2023-04-15T20:56:22.406Z,94785.25
2023-04-15T20:58:50.450Z,94783.75
2023-04-15T21:01:18.553Z,94760.41
2023-04-15T21:03:46.789Z,94786.16
2023-04-15T21:06:14.921Z,94764.25
2023-04-15T21:08:42.940Z,94783.34
2023-04-15T21:11:11.667Z,94734.41
2023-04-15T21:13:41.100Z,94719.34
2023-04-15T21:16:09.519Z,94786.75
2023-04-15T21:18:37.692Z,94785.97
2023-04-15T21:21:06.218Z,94790.63
2023-04-15T21:23:36.885Z,94744.34
2023-04-15T21:26:05.016Z,94796.59
2023-04-15T21:28:33.356Z,94776.22
2023-04-15T21:31:02.803Z,94804.22
2023-04-15T21:33:30.880Z,94798.31
2023-04-15T21:35:59.036Z,94798.13
2023-04-15T21:38:29.426Z,94815.41
2023-04-15T21:40:58.094Z,94801.78
2023-04-15T21:43:26.219Z,94814.47
2023-04-15T21:46:22.953Z,94803.22
2023-04-15T21:48:43.955Z,94806.44
2023-04-15T21:51:12.132Z,94808.84
2023-04-15T21:53:40.084Z,94812.03
2023-04-15T21:56:09.272Z,94761.53
2023-04-15T21:58:37.866Z,94803.28
2023-04-15T22:01:06.356Z,94789.75
2023-04-15T22:03:35.737Z,94807.84
2023-04-15T22:06:05.508Z,94805.44
2023-04-15T22:08:44.619Z,94811.50
2023-04-15T22:11:23.160Z,94806.44
2023-04-15T22:13:51.159Z,94788.06
2023-04-15T22:16:19.176Z,94802.31
2023-04-15T22:18:47.188Z,94809.28
2023-04-15T22:21:16.796Z,94806.44
2023-04-15T22:23:47.374Z,94822.31
2023-04-15T22:26:15.589Z,94819.09
2023-04-15T22:28:43.667Z,94819.75
2023-04-15T22:31:11.714Z,94817.84
2023-04-15T22:33:40.071Z,94824.75
2023-04-15T22:36:07.981Z,94813.47
2023-04-15T22:38:38.742Z,94824.97
2023-04-15T22:41:06.752Z,94819.09
2023-04-15T22:43:34.763Z,94817.81
2023-04-15T22:46:02.940Z,94809.97
2023-04-15T22:48:31.136Z,94799.72
2023-04-15T22:50:59.078Z,94810.69
2023-04-15T22:53:27.267Z,94804.16
2023-04-15T22:55:56.527Z,94784.06
2023-04-15T22:58:24.907Z,94801.19
2023-04-15T23:00:53.212Z,94647.69
2023-04-15T23:03:21.577Z,94803.84
2023-04-15T23:05:49.778Z,94803.41
2023-04-15T23:08:17.635Z,94804.13
2023-04-15T23:10:46.650Z,94807.09
2023-04-15T23:13:15.971Z,94805.03
2023-04-15T23:15:46.553Z,94791.97
2023-04-15T23:18:14.702Z,94811.91
2023-04-15T23:20:42.645Z,94812.28
2023-04-15T23:23:10.673Z,94802.94
2023-04-15T23:25:38.663Z,94795.59
2023-04-15T23:28:07.237Z,94798.41
2023-04-15T23:30:36.574Z,94802.66
2023-04-15T23:33:04.699Z,94779.44
2023-04-15T23:35:32.896Z,94783.41
2023-04-15T23:38:00.961Z,94798.41
2023-04-15T23:40:28.958Z,94798.75
2023-04-15T23:42:56.913Z,94803.56
2023-04-15T23:45:25.024Z,94801.16
2023-04-15T23:47:54.511Z,94772.38
2023-04-15T23:50:22.526Z,94794.53
2023-04-15T23:52:50.548Z,94782.66
2023-04-15T23:55:18.485Z,94797.38
2023-04-15T23:57:46.568Z,94799.91
